Time;durP1;ratioP1;P1;durP2;ratioP2;P2;SDS_P1;SDS_P2;PMS_P1;PMS_P2;Temp;Humidity;BMP_temperature;BMP_pressure;BME280_temperature;BME280_humidity;BME280_pressure;Samples;Min_cycle;Max_cycle;Signal;HPM_P1;HPM_P2
2021/06/20 00:01:24;;;;;;;18.70;14.00;;;22.20;99.90;;;;;;4443085;32;20169;-65
2021/06/20 00:03:51;;;;;;;17.67;13.48;;;22.10;99.90;;;;;;4442982;32;20158;-64
2021/06/20 00:06:38;;;;;;;19.48;14.05;;;22.10;99.90;;;;;;4442816;32;20143;-64
2021/06/20 00:09:12;;;;;;;19.40;14.07;;;22.10;99.90;;;;;;4442739;32;20226;-64
2021/06/20 00:11:42;;;;;;;17.50;14.13;;;22.00;99.90;;;;;;4443054;32;20179;-65
2021/06/20 00:14:10;;;;;;;17.83;14.13;;;22.00;99.90;;;;;;4442070;32;20402;-64
2021/06/20 00:16:38;;;;;;;17.45;14.15;;;21.90;99.90;;;;;;4441204;32;20413;-65
2021/06/20 00:19:07;;;;;;;21.13;14.33;;;21.90;99.90;;;;;;4441098;32;20186;-64
2021/06/20 00:21:35;;;;;;;20.37;14.57;;;21.80;99.90;;;;;;4442570;32;20186;-64
2021/06/20 00:24:02;;;;;;;19.87;15.20;;;21.80;99.90;;;;;;4442485;32;20146;-64
2021/06/20 00:26:29;;;;;;;16.48;13.80;;;21.80;99.90;;;;;;4441750;32;20146;-64
2021/06/20 00:28:57;;;;;;;17.98;14.80;;;21.70;99.90;;;;;;4442416;32;20221;-64
2021/06/20 00:31:24;;;;;;;16.40;13.73;;;21.70;99.90;;;;;;4441073;32;20138;-64
2021/06/20 00:33:51;;;;;;;19.65;14.30;;;21.60;99.90;;;;;;4442498;32;20158;-64
2021/06/20 00:36:18;;;;;;;18.10;14.47;;;21.60;99.90;;;;;;4441002;32;20139;-64
2021/06/20 00:38:44;;;;;;;17.40;14.17;;;21.60;99.90;;;;;;4442405;32;20170;-64
2021/06/20 00:41:11;;;;;;;17.30;14.50;;;21.50;99.90;;;;;;4442266;32;20202;-64
2021/06/20 00:43:38;;;;;;;21.03;14.70;;;21.50;99.90;;;;;;4442141;32;20150;-64
2021/06/20 00:46:08;;;;;;;17.70;14.50;;;21.50;99.90;;;;;;4442623;32;20235;-64
2021/06/20 00:48:35;;;;;;;19.53;13.70;;;21.50;99.90;;;;;;4441013;32;20174;-64
2021/06/20 00:51:02;;;;;;;19.93;14.37;;;21.40;99.90;;;;;;4441695;32;20162;-64
2021/06/20 00:53:29;;;;;;;17.53;14.40;;;21.40;99.90;;;;;;4440882;32;20184;-64
2021/06/20 00:55:58;;;;;;;18.73;14.53;;;21.40;99.90;;;;;;4440228;32;20184;-64
2021/06/20 00:58:26;;;;;;;21.03;14.07;;;21.40;99.90;;;;;;4441574;32;20165;-64
2021/06/20 01:00:52;;;;;;;19.17;14.27;;;21.40;99.90;;;;;;4442053;32;20138;-64
2021/06/20 01:03:20;;;;;;;20.50;14.63;;;21.30;99.90;;;;;;4442314;32;20155;-64
2021/06/20 01:05:47;;;;;;;18.90;13.80;;;21.30;99.90;;;;;;4441545;32;20199;-65
2021/06/20 01:08:14;;;;;;;19.13;14.10;;;21.20;99.90;;;;;;4440356;32;20184;-65
2021/06/20 01:10:41;;;;;;;18.30;14.17;;;21.10;99.90;;;;;;4440386;32;20154;-65
2021/06/20 01:13:11;;;;;;;18.47;13.90;;;21.20;99.90;;;;;;4439894;32;20131;-65
2021/06/20 01:15:40;;;;;;;20.10;15.53;;;21.10;99.90;;;;;;4441614;32;20172;-65
2021/06/20 01:18:08;;;;;;;18.10;14.77;;;21.00;99.90;;;;;;4441878;32;20191;-65
2021/06/20 01:20:36;;;;;;;17.77;13.77;;;20.90;99.90;;;;;;4441862;32;20135;-65
2021/06/20 01:23:03;;;;;;;17.93;14.63;;;20.90;99.90;;;;;;4441350;32;20166;-65
2021/06/20 01:25:33;;;;;;;17.23;14.43;;;20.90;99.90;;;;;;4440778;32;20405;-65
2021/06/20 01:28:06;;;;;;;18.33;14.13;;;20.80;99.90;;;;;;4441550;32;20440;-65
2021/06/20 01:30:36;;;;;;;18.63;14.40;;;20.80;99.90;;;;;;4441925;32;20369;-65
2021/06/20 01:33:05;;;;;;;19.23;14.57;;;20.80;99.90;;;;;;4440561;32;20399;-64
2021/06/20 01:35:32;;;;;;;22.07;15.17;;;20.70;99.90;;;;;;4440249;32;20362;-65
2021/06/20 01:38:00;;;;;;;18.23;13.93;;;20.80;99.90;;;;;;4439943;32;20444;-65
2021/06/20 01:40:27;;;;;;;20.70;15.23;;;20.70;99.90;;;;;;4439530;32;20146;-65
2021/06/20 01:42:55;;;;;;;20.70;14.20;;;20.70;99.90;;;;;;4439577;32;20178;-64
2021/06/20 01:45:23;;;;;;;19.90;14.97;;;20.70;99.90;;;;;;4440705;32;20150;-64
2021/06/20 01:47:53;;;;;;;20.93;15.07;;;20.60;99.90;;;;;;4441064;32;20207;-64
2021/06/20 01:50:20;;;;;;;18.10;14.83;;;20.50;99.90;;;;;;4441840;32;20433;-64
2021/06/20 01:52:47;;;;;;;18.10;14.43;;;20.50;99.90;;;;;;4441569;32;20139;-64
2021/06/20 01:55:16;;;;;;;15.90;13.97;;;20.50;99.90;;;;;;4440130;32;20460;-64
2021/06/20 01:57:45;;;;;;;20.70;14.33;;;20.50;99.90;;;;;;4441274;32;20211;-64
2021/06/20 02:00:14;;;;;;;19.07;14.07;;;20.40;99.90;;;;;;4441289;32;20147;-64
2021/06/20 02:02:42;;;;;;;18.83;14.23;;;20.40;99.90;;;;;;4440803;32;20180;-64
2021/06/20 02:05:10;;;;;;;18.10;14.20;;;20.40;99.90;;;;;;4439713;32;20165;-64
2021/06/20 02:07:38;;;;;;;17.43;14.47;;;20.40;99.90;;;;;;4441034;32;20142;-64
2021/06/20 02:10:11;;;;;;;19.43;14.83;;;20.40;99.90;;;;;;4439369;32;20196;-64
2021/06/20 02:12:38;;;;;;;19.23;14.57;;;20.30;99.90;;;;;;4440346;32;20147;-64
2021/06/20 02:15:07;;;;;;;19.77;14.50;;;20.30;99.90;;;;;;4440392;32;20174;-64
2021/06/20 02:17:35;;;;;;;18.33;14.20;;;20.20;99.90;;;;;;4441130;32;20189;-64
2021/06/20 02:20:10;;;;;;;21.07;14.77;;;20.20;99.90;;;;;;4441100;32;20161;-64
2021/06/20 02:22:39;;;;;;;19.97;15.60;;;20.20;99.90;;;;;;4441303;32;20162;-64
2021/06/20 02:25:11;;;;;;;19.67;14.20;;;20.20;99.90;;;;;;4440376;32;20139;-64
2021/06/20 02:27:40;;;;;;;17.40;14.03;;;20.20;99.90;;;;;;4440490;32;20180;-64
2021/06/20 02:30:08;;;;;;;17.90;14.27;;;20.10;99.90;;;;;;4440974;32;20177;-64
2021/06/20 02:32:35;;;;;;;21.13;14.30;;;20.20;99.90;;;;;;4441131;32;20166;-64
2021/06/20 02:35:04;;;;;;;18.23;15.50;;;20.20;99.90;;;;;;4440203;32;20154;-67
2021/06/20 02:37:32;;;;;;;17.93;14.57;;;20.20;99.90;;;;;;4440677;32;20551;-67
2021/06/20 02:39:59;;;;;;;20.87;15.53;;;20.20;99.90;;;;;;4440683;32;20143;-68
2021/06/20 02:42:26;;;;;;;18.30;14.97;;;20.10;99.90;;;;;;4440870;32;20209;-67
2021/06/20 02:44:54;;;;;;;21.43;15.80;;;20.10;99.90;;;;;;4439095;32;20250;-67
2021/06/20 02:47:24;;;;;;;20.13;16.10;;;20.10;99.90;;;;;;4439243;32;20184;-66
2021/06/20 02:49:51;;;;;;;21.60;15.30;;;20.10;99.90;;;;;;4439976;32;20468;-67
2021/06/20 02:52:18;;;;;;;21.30;15.73;;;20.10;99.90;;;;;;4443881;32;20169;-67
2021/06/20 02:54:51;;;;;;;22.23;15.67;;;20.10;99.90;;;;;;4444172;32;20384;-67
2021/06/20 02:57:24;;;;;;;21.03;16.30;;;20.10;99.90;;;;;;4443892;32;20147;-68
2021/06/20 02:59:56;;;;;;;19.87;15.50;;;20.10;99.90;;;;;;4443958;32;20234;-68
2021/06/20 03:02:24;;;;;;;19.70;15.43;;;20.10;99.90;;;;;;4442328;32;20222;-68
2021/06/20 03:04:53;;;;;;;18.17;14.83;;;20.10;99.90;;;;;;4442324;32;20135;-68
2021/06/20 03:07:20;;;;;;;18.80;15.27;;;20.20;99.90;;;;;;4443791;32;20154;-67
2021/06/20 03:09:47;;;;;;;19.60;15.00;;;20.20;99.90;;;;;;4443613;32;20146;-67
2021/06/20 03:12:15;;;;;;;19.07;14.97;;;20.20;99.90;;;;;;4442823;32;20414;-66
2021/06/20 03:14:43;;;;;;;19.43;15.43;;;20.20;99.90;;;;;;4442083;32;20150;-67
2021/06/20 03:17:11;;;;;;;22.77;15.13;;;20.30;99.90;;;;;;4441723;32;20550;-67
2021/06/20 03:19:39;;;;;;;17.83;14.90;;;20.30;99.90;;;;;;4443564;32;20244;-67
2021/06/20 03:22:07;;;;;;;18.07;14.87;;;20.30;99.90;;;;;;4442492;32;20196;-67
2021/06/20 03:24:39;;;;;;;18.77;14.27;;;20.20;99.90;;;;;;4443473;32;20134;-66
2021/06/20 03:27:06;;;;;;;17.90;14.10;;;20.30;99.90;;;;;;4443428;32;20529;-66
2021/06/20 03:29:34;;;;;;;18.53;14.53;;;20.30;99.90;;;;;;4441834;32;20173;-67
2021/06/20 03:32:02;;;;;;;17.63;14.60;;;20.30;99.90;;;;;;4441925;32;20237;-67
2021/06/20 03:34:31;;;;;;;18.30;13.77;;;20.20;99.90;;;;;;4441932;32;20496;-67
2021/06/20 03:36:59;;;;;;;18.07;13.73;;;20.30;99.90;;;;;;4441856;32;20146;-67
2021/06/20 03:39:26;;;;;;;17.70;13.67;;;20.30;99.90;;;;;;4442229;32;20174;-67
2021/06/20 03:41:53;;;;;;;14.30;12.57;;;20.30;99.90;;;;;;4442606;32;20150;-67
2021/06/20 03:44:20;;;;;;;18.90;13.67;;;20.40;99.90;;;;;;4442133;32;20181;-67
2021/06/20 03:46:47;;;;;;;17.17;13.57;;;20.40;99.90;;;;;;4441714;32;20190;-67
2021/06/20 03:49:14;;;;;;;17.40;14.00;;;20.50;99.90;;;;;;4441586;32;20218;-67
2021/06/20 03:51:41;;;;;;;16.37;14.07;;;20.60;99.90;;;;;;4441837;32;20139;-67
2021/06/20 03:54:09;;;;;;;16.53;12.67;;;20.60;99.90;;;;;;4443008;32;20448;-66
2021/06/20 03:56:35;;;;;;;14.77;12.80;;;20.60;99.90;;;;;;4443108;32;20191;-66
2021/06/20 03:59:02;;;;;;;15.93;12.83;;;20.60;99.90;;;;;;4442777;32;20503;-66
2021/06/20 04:01:29;;;;;;;19.33;13.10;;;20.70;99.90;;;;;;4441322;32;20146;-66
2021/06/20 04:03:57;;;;;;;16.57;12.27;;;20.70;99.90;;;;;;4440582;32;20407;-67
2021/06/20 04:06:24;;;;;;;15.10;12.80;;;20.70;99.90;;;;;;4442785;32;20243;-67
2021/06/20 04:08:51;;;;;;;15.10;12.20;;;20.80;99.90;;;;;;4441269;32;20412;-66
2021/06/20 04:11:18;;;;;;;14.20;12.07;;;20.80;99.90;;;;;;4443039;32;20143;-66
2021/06/20 04:13:45;;;;;;;15.30;11.93;;;20.90;99.90;;;;;;4441249;32;20393;-66
2021/06/20 04:16:12;;;;;;;16.10;11.80;;;20.90;99.90;;;;;;4441212;32;20229;-66
2021/06/20 04:18:39;;;;;;;16.40;12.23;;;21.00;99.90;;;;;;4442735;32;20143;-67
2021/06/20 04:21:06;;;;;;;15.90;12.57;;;21.10;99.90;;;;;;4441131;32;20177;-66
2021/06/20 04:23:32;;;;;;;14.53;12.30;;;21.10;99.90;;;;;;4441144;32;20147;-66
2021/06/20 04:25:59;;;;;;;16.50;12.30;;;21.20;99.90;;;;;;4441097;32;20187;-66
2021/06/20 04:28:26;;;;;;;15.90;12.53;;;21.20;99.90;;;;;;4441002;32;20259;-67
2021/06/20 04:30:56;;;;;;;17.17;13.10;;;21.30;99.90;;;;;;4442504;32;20139;-66
2021/06/20 04:33:24;;;;;;;14.83;12.67;;;21.30;99.90;;;;;;4441058;32;20143;-67
2021/06/20 04:35:52;;;;;;;17.73;13.00;;;21.30;99.90;;;;;;4441066;32;20218;-67
2021/06/20 04:38:19;;;;;;;16.93;12.53;;;21.30;99.90;;;;;;4442504;32;20154;-67
2021/06/20 04:40:47;;;;;;;16.57;12.10;;;21.20;99.90;;;;;;4442476;32;20155;-67
2021/06/20 04:43:39;;;;;;;15.47;11.97;;;21.20;99.90;;;;;;4440931;32;20183;-67
2021/06/20 04:46:22;;;;;;;14.83;12.13;;;21.30;99.90;;;;;;4442330;32;20222;-66
2021/06/20 04:48:51;;;;;;;13.50;11.73;;;21.40;99.90;;;;;;4441355;32;20154;-66
2021/06/20 04:51:18;;;;;;;13.03;11.40;;;21.50;99.90;;;;;;4440722;32;20434;-68
2021/06/20 04:53:46;;;;;;;15.47;11.40;;;21.50;99.90;;;;;;4440755;32;20372;-67
2021/06/20 04:56:13;;;;;;;12.70;11.40;;;21.60;99.90;;;;;;4440967;32;20162;-67
2021/06/20 04:58:40;;;;;;;15.47;11.50;;;21.70;99.90;;;;;;4441320;32;20348;-67
2021/06/20 05:01:08;;;;;;;14.77;11.40;;;21.60;99.90;;;;;;4441720;32;20214;-67
2021/06/20 05:03:35;;;;;;;12.97;10.50;;;21.70;99.90;;;;;;4440684;32;20146;-67
2021/06/20 05:06:02;;;;;;;13.33;10.03;;;21.80;99.90;;;;;;4440594;32;20493;-67
2021/06/20 05:08:29;;;;;;;14.13;10.40;;;21.80;99.90;;;;;;4442464;32;20371;-67
2021/06/20 05:10:56;;;;;;;13.67;10.53;;;21.90;99.90;;;;;;4440700;32;20464;-67
2021/06/20 05:13:23;;;;;;;10.80;9.70;;;21.90;99.90;;;;;;4441027;32;20188;-67
2021/06/20 05:15:49;;;;;;;11.63;10.00;;;22.00;99.90;;;;;;4440818;32;20150;-67
2021/06/20 05:18:16;;;;;;;12.10;8.97;;;22.00;99.90;;;;;;4442121;32;20233;-67
2021/06/20 05:20:43;;;;;;;11.60;9.43;;;22.00;99.90;;;;;;4440352;32;20194;-67
2021/06/20 05:23:10;;;;;;;12.33;9.43;;;22.10;99.90;;;;;;4440292;32;20516;-67
2021/06/20 05:25:37;;;;;;;11.10;9.27;;;22.20;99.90;;;;;;4440759;32;20444;-67
2021/06/20 05:28:05;;;;;;;11.17;9.67;;;22.30;99.90;;;;;;4440775;32;20139;-67
2021/06/20 05:30:32;;;;;;;9.68;8.68;;;22.40;99.90;;;;;;4441879;32;20145;-67
2021/06/20 05:32:59;;;;;;;12.23;9.15;;;22.50;99.90;;;;;;4440196;32;20185;-67
2021/06/20 05:35:26;;;;;;;11.73;8.70;;;22.50;99.90;;;;;;4439964;32;20372;-67
2021/06/20 05:37:52;;;;;;;10.00;8.23;;;22.50;99.90;;;;;;4439953;32;20393;-67
2021/06/20 05:40:19;;;;;;;11.70;8.73;;;22.60;99.90;;;;;;4441477;32;20142;-67
2021/06/20 05:42:46;;;;;;;9.13;8.13;;;22.70;99.90;;;;;;4440062;32;20488;-67
2021/06/20 05:45:14;;;;;;;12.77;8.70;;;22.70;99.90;;;;;;4441394;32;20419;-67
2021/06/20 05:47:42;;;;;;;13.02;8.18;;;22.80;99.90;;;;;;4440149;32;20532;-67
2021/06/20 05:50:09;;;;;;;10.63;7.93;;;22.80;99.90;;;;;;4439906;32;20150;-67
2021/06/20 05:52:36;;;;;;;15.17;8.40;;;22.90;99.90;;;;;;4440274;32;20200;-67
2021/06/20 05:55:06;;;;;;;9.93;7.97;;;23.00;99.90;;;;;;4441385;32;20397;-67
2021/06/20 05:57:33;;;;;;;9.88;7.75;;;23.10;99.90;;;;;;4440555;32;20293;-67
2021/06/20 06:00:00;;;;;;;8.48;7.22;;;23.10;99.90;;;;;;4440444;32;20204;-67
2021/06/20 06:02:27;;;;;;;8.87;7.97;;;23.20;99.90;;;;;;4439722;32;20186;-67
2021/06/20 06:04:54;;;;;;;9.98;7.97;;;23.20;99.90;;;;;;4441101;32;20138;-67
2021/06/20 06:07:21;;;;;;;8.82;7.80;;;23.30;99.90;;;;;;4440860;32;20184;-67
2021/06/20 06:09:48;;;;;;;8.68;7.47;;;23.40;99.90;;;;;;4440808;32;20457;-67
2021/06/20 06:12:14;;;;;;;9.03;7.43;;;23.50;99.90;;;;;;4440801;32;20418;-67
2021/06/20 06:14:41;;;;;;;9.70;7.50;;;23.50;99.90;;;;;;4440892;32;20138;-67
2021/06/20 06:17:08;;;;;;;7.70;6.87;;;23.70;99.90;;;;;;4439400;32;20146;-67
2021/06/20 06:19:35;;;;;;;10.57;8.00;;;23.80;99.90;;;;;;4440501;32;20231;-67
2021/06/20 06:22:02;;;;;;;8.90;7.43;;;23.90;99.90;;;;;;4438872;32;20206;-67
2021/06/20 06:24:29;;;;;;;10.17;7.73;;;23.90;99.90;;;;;;4439057;32;20395;-67
2021/06/20 06:26:56;;;;;;;10.40;7.82;;;24.00;99.90;;;;;;4439963;32;20139;-67
2021/06/20 06:29:23;;;;;;;8.75;7.50;;;24.10;99.90;;;;;;4439054;32;20149;-67
2021/06/20 06:31:49;;;;;;;9.52;7.85;;;24.10;99.90;;;;;;4439036;32;20492;-66
2021/06/20 06:34:17;;;;;;;9.00;7.72;;;24.10;99.90;;;;;;4439398;32;20181;-67
2021/06/20 06:36:43;;;;;;;8.82;7.40;;;24.10;99.90;;;;;;4440422;32;20261;-66
2021/06/20 06:39:10;;;;;;;9.40;7.60;;;24.30;99.90;;;;;;4435440;32;20163;-67
2021/06/20 06:41:37;;;;;;;8.52;7.60;;;24.40;99.90;;;;;;4423871;32;20182;-66
2021/06/20 06:44:04;;;;;;;9.18;7.47;;;24.50;99.90;;;;;;4423375;32;20166;-66
2021/06/20 06:46:31;;;;;;;9.20;7.00;;;24.60;99.90;;;;;;4425105;32;20188;-66
2021/06/20 06:48:58;;;;;;;12.05;8.55;;;24.60;99.90;;;;;;4423682;32;20386;-67
2021/06/20 06:51:25;;;;;;;9.95;7.82;;;24.60;99.90;;;;;;4424240;32;20161;-67
2021/06/20 06:53:52;;;;;;;9.68;8.32;;;24.70;99.90;;;;;;4423419;32;20172;-67
2021/06/20 06:56:19;;;;;;;9.48;7.70;;;24.80;99.90;;;;;;4425007;32;20415;-67
2021/06/20 06:58:46;;;;;;;8.80;7.65;;;25.00;99.90;;;;;;4423508;32;20231;-67
2021/06/20 07:01:13;;;;;;;9.73;7.75;;;24.90;99.90;;;;;;4424523;32;20206;-68
2021/06/20 07:03:40;;;;;;;9.55;7.75;;;25.00;99.90;;;;;;4425054;32;20203;-67
2021/06/20 07:06:07;;;;;;;10.32;7.93;;;25.00;99.90;;;;;;4422740;32;20181;-67
2021/06/20 07:08:34;;;;;;;9.85;7.57;;;25.00;99.90;;;;;;4423436;32;20188;-67
2021/06/20 07:11:01;;;;;;;9.80;7.97;;;25.10;99.90;;;;;;4423502;32;20143;-67
2021/06/20 07:13:27;;;;;;;10.10;7.43;;;25.20;99.90;;;;;;4423277;32;20227;-67
2021/06/20 07:15:54;;;;;;;10.85;7.57;;;25.20;99.90;;;;;;4423790;32;20184;-67
2021/06/20 07:18:21;;;;;;;10.38;8.00;;;25.10;99.90;;;;;;4423398;32;20143;-67
2021/06/20 07:20:48;;;;;;;9.30;7.60;;;25.10;99.90;;;;;;4423475;32;20143;-67
2021/06/20 07:23:15;;;;;;;10.40;7.60;;;25.10;99.90;;;;;;4423450;32;20165;-67
2021/06/20 07:25:42;;;;;;;8.95;7.72;;;25.20;99.90;;;;;;4423483;32;20187;-68
2021/06/20 07:28:09;;;;;;;10.45;7.95;;;25.40;99.90;;;;;;4423512;32;20471;-68
2021/06/20 07:30:36;;;;;;;11.40;8.15;;;25.50;99.90;;;;;;4424845;32;20147;-68
2021/06/20 07:33:03;;;;;;;13.02;8.55;;;25.60;99.90;;;;;;4424875;32;20139;-68
2021/06/20 07:35:30;;;;;;;9.15;7.85;;;25.80;99.90;;;;;;4423692;32;20158;-67
2021/06/20 07:37:57;;;;;;;9.48;8.05;;;25.80;99.90;;;;;;4425007;32;20185;-68
2021/06/20 07:40:24;;;;;;;10.13;8.10;;;25.80;99.90;;;;;;4426221;32;20188;-68
2021/06/20 07:42:51;;;;;;;9.85;8.40;;;25.80;99.90;;;;;;4427838;32;20183;-68
2021/06/20 07:45:18;;;;;;;8.43;7.50;;;25.90;99.90;;;;;;4427362;32;20142;-68
2021/06/20 07:47:46;;;;;;;10.40;8.20;;;26.10;99.90;;;;;;4426165;32;20165;-68
2021/06/20 07:50:14;;;;;;;8.90;7.75;;;26.20;99.90;;;;;;4427504;32;20226;-68
2021/06/20 07:52:42;;;;;;;11.85;7.97;;;26.30;99.90;;;;;;4426066;32;20146;-68
2021/06/20 07:55:09;;;;;;;9.23;8.18;;;26.40;99.90;;;;;;4426004;32;20483;-68
2021/06/20 07:57:36;;;;;;;10.25;8.00;;;26.30;99.90;;;;;;4425851;32;20427;-68
2021/06/20 08:00:06;;;;;;;10.80;7.90;;;26.40;99.90;;;;;;4427343;32;20214;-68
2021/06/20 08:02:32;;;;;;;10.15;8.45;;;26.40;99.90;;;;;;4426356;32;20202;-68
2021/06/20 08:04:59;;;;;;;9.65;8.00;;;26.50;99.90;;;;;;4425658;32;20140;-68
2021/06/20 08:07:26;;;;;;;9.85;7.40;;;26.60;99.90;;;;;;4427225;32;20155;-68
2021/06/20 08:09:56;;;;;;;9.00;7.85;;;26.70;99.90;;;;;;4425674;32;20155;-68
2021/06/20 08:12:23;;;;;;;10.10;8.05;;;26.70;99.90;;;;;;4427248;32;20441;-68
2021/06/20 08:14:51;;;;;;;9.30;7.53;;;26.80;99.90;;;;;;4427135;32;20219;-68
2021/06/20 08:17:20;;;;;;;8.38;7.47;;;26.80;99.90;;;;;;4427153;32;20175;-68
2021/06/20 08:19:47;;;;;;;9.68;8.00;;;26.90;99.90;;;;;;4425600;32;20198;-68
2021/06/20 08:22:16;;;;;;;7.70;6.90;;;26.80;99.90;;;;;;4425552;32;20162;-68
2021/06/20 08:24:44;;;;;;;7.78;6.87;;;27.00;98.80;;;;;;4426614;32;20411;-68
2021/06/20 08:27:11;;;;;;;11.60;7.28;;;27.40;99.30;;;;;;4426652;32;20210;-68
2021/06/20 08:29:38;;;;;;;9.65;6.47;;;28.20;97.40;;;;;;4425479;32;20186;-65
2021/06/20 08:32:06;;;;;;;7.47;6.15;;;28.80;94.70;;;;;;4426490;32;20194;-65
2021/06/20 08:34:34;;;;;;;6.30;5.70;;;29.50;92.70;;;;;;4427055;32;20135;-65
2021/06/20 08:37:02;;;;;;;7.32;6.07;;;30.20;91.10;;;;;;4426298;32;20197;-65
2021/06/20 08:39:29;;;;;;;6.35;5.75;;;30.70;86.40;;;;;;4426964;32;20507;-65
2021/06/20 08:41:56;;;;;;;8.13;5.25;;;30.80;82.40;;;;;;4427116;32;20181;-65
2021/06/20 08:44:29;;;;;;;6.12;5.12;;;30.80;77.20;;;;;;4426467;32;20484;-65
2021/06/20 08:46:56;;;;;;;6.00;5.40;;;30.90;79.60;;;;;;4426511;32;20135;-65
2021/06/20 08:49:25;;;;;;;5.78;5.18;;;31.00;77.90;;;;;;4426307;32;20239;-65
2021/06/20 08:51:53;;;;;;;6.80;4.70;;;31.30;76.10;;;;;;4426677;32;20147;-65
2021/06/20 08:54:20;;;;;;;5.57;5.07;;;31.80;74.30;;;;;;4425257;32;20184;-65
2021/06/20 08:56:50;;;;;;;7.30;4.68;;;32.10;71.50;;;;;;4426711;32;20210;-66
2021/06/20 08:59:19;;;;;;;5.62;4.40;;;32.40;69.30;;;;;;4429645;32;20151;-66
2021/06/20 09:01:46;;;;;;;7.90;4.90;;;32.60;70.30;;;;;;4435183;32;20155;-66
2021/06/20 09:04:28;;;;;;;7.30;4.95;;;32.80;68.00;;;;;;4440565;32;20147;-66
2021/06/20 09:06:57;;;;;;;7.40;4.78;;;32.40;69.20;;;;;;4436819;32;20174;-66
2021/06/20 09:09:36;;;;;;;5.28;4.60;;;32.30;68.00;;;;;;4433450;32;20215;-64
2021/06/20 09:12:13;;;;;;;6.47;5.10;;;32.50;67.60;;;;;;4425326;32;20146;-65
2021/06/20 09:14:46;;;;;;;6.47;4.75;;;32.50;67.10;;;;;;4426481;32;20166;-65
2021/06/20 09:17:26;;;;;;;7.35;5.05;;;32.60;67.10;;;;;;4427018;32;20150;-65
2021/06/20 09:20:00;;;;;;;4.87;4.37;;;32.80;65.30;;;;;;4427777;32;20158;-65
2021/06/20 09:22:28;;;;;;;5.22;4.45;;;32.80;65.70;;;;;;4434960;32;20143;-65
2021/06/20 09:25:00;;;;;;;4.93;4.30;;;33.00;65.20;;;;;;4438782;32;20173;-65
2021/06/20 09:27:29;;;;;;;5.12;3.95;;;33.10;62.80;;;;;;4441580;32;20305;-65
2021/06/20 09:30:07;;;;;;;4.45;3.80;;;33.20;61.50;;;;;;4441461;32;20142;-65
2021/06/20 09:32:34;;;;;;;4.35;3.95;;;33.20;60.00;;;;;;4441630;32;20138;-65
2021/06/20 09:35:04;;;;;;;4.43;4.03;;;33.10;60.00;;;;;;4441544;32;20202;-65
2021/06/20 09:37:31;;;;;;;4.57;4.03;;;33.30;59.90;;;;;;4439961;32;20139;-66
2021/06/20 09:40:09;;;;;;;3.83;3.53;;;33.60;59.40;;;;;;4441577;32;20484;-67
2021/06/20 09:42:41;;;;;;;4.45;3.33;;;33.60;57.20;;;;;;4441227;32;20146;-67
2021/06/20 09:45:08;;;;;;;5.60;3.80;;;33.80;56.60;;;;;;4439962;32;20231;-66
2021/06/20 09:47:40;;;;;;;4.03;3.58;;;33.90;55.60;;;;;;4439795;32;20154;-65
2021/06/20 09:50:09;;;;;;;3.50;3.20;;;33.70;55.60;;;;;;4440522;32;20201;-65
2021/06/20 09:52:36;;;;;;;3.90;3.40;;;33.80;55.80;;;;;;4439752;32;20194;-66
2021/06/20 09:55:10;;;;;;;4.43;3.55;;;33.80;55.10;;;;;;4440098;32;20143;-66
2021/06/20 09:57:41;;;;;;;3.62;3.25;;;33.70;55.00;;;;;;4440498;32;20172;-65
2021/06/20 10:00:09;;;;;;;4.75;3.50;;;33.50;53.20;;;;;;4440715;32;20192;-66
2021/06/20 10:02:39;;;;;;;3.87;3.47;;;33.50;55.00;;;;;;4439469;32;20146;-65
2021/06/20 10:05:08;;;;;;;5.03;3.20;;;33.50;54.90;;;;;;4441010;32;20135;-66
2021/06/20 10:07:36;;;;;;;5.40;3.00;;;33.90;54.30;;;;;;4439825;32;20195;-66
2021/06/20 10:10:07;;;;;;;4.45;3.20;;;33.90;51.90;;;;;;4439663;32;20142;-66
2021/06/20 10:12:34;;;;;;;3.53;3.22;;;34.20;51.60;;;;;;4440885;32;20165;-65
2021/06/20 10:15:09;;;;;;;4.57;3.30;;;34.20;50.10;;;;;;4440331;32;20207;-65
2021/06/20 10:17:40;;;;;;;3.15;2.92;;;34.20;50.30;;;;;;4439435;32;20169;-65
2021/06/20 10:20:12;;;;;;;4.10;3.08;;;34.40;51.00;;;;;;4439819;32;20173;-65
2021/06/20 10:22:43;;;;;;;5.62;3.25;;;34.70;49.80;;;;;;4439395;32;20222;-65
2021/06/20 10:25:23;;;;;;;7.28;3.42;;;35.10;49.90;;;;;;4440679;32;20456;-65
2021/06/20 10:27:57;;;;;;;4.30;3.30;;;35.40;50.00;;;;;;4440366;32;20225;-64
2021/06/20 10:30:25;;;;;;;3.47;3.15;;;35.50;49.60;;;;;;4440710;32;20398;-65
2021/06/20 10:32:52;;;;;;;3.50;3.20;;;35.90;47.70;;;;;;4440710;32;20193;-65
2021/06/20 10:35:24;;;;;;;3.33;3.03;;;36.10;47.40;;;;;;4439155;32;20269;-65
2021/06/20 10:37:53;;;;;;;3.90;3.12;;;36.10;47.30;;;;;;4439794;32;20139;-65
2021/06/20 10:40:22;;;;;;;6.28;3.05;;;36.00;46.90;;;;;;4440671;32;20207;-65
2021/06/20 10:42:51;;;;;;;4.93;3.60;;;35.70;47.30;;;;;;4440651;32;20177;-65
2021/06/20 10:45:27;;;;;;;3.42;3.12;;;35.60;47.80;;;;;;4437753;32;20162;-66
2021/06/20 10:47:57;;;;;;;5.15;3.40;;;36.00;47.80;;;;;;4435293;32;20199;-65
2021/06/20 10:50:35;;;;;;;3.95;3.28;;;36.10;47.30;;;;;;4438105;32;20472;-65
2021/06/20 10:53:02;;;;;;;4.45;3.10;;;36.40;46.50;;;;;;4433882;32;20158;-65
2021/06/20 10:55:43;;;;;;;3.87;3.50;;;37.00;46.40;;;;;;4425288;32;20235;-65
2021/06/20 10:58:23;;;;;;;4.32;3.58;;;36.90;45.50;;;;;;4429308;32;20163;-65
2021/06/20 11:01:07;;;;;;;4.00;3.60;;;36.70;46.20;;;;;;4425207;32;20196;-65
2021/06/20 11:03:34;;;;;;;4.50;3.97;;;36.80;46.30;;;;;;4424351;32;20143;-66
2021/06/20 11:06:04;;;;;;;4.47;3.80;;;36.90;47.30;;;;;;4424664;32;20238;-65
2021/06/20 11:08:41;;;;;;;4.55;3.80;;;37.30;46.60;;;;;;4430944;32;20548;-65
2021/06/20 11:11:24;;;;;;;4.18;3.78;;;36.90;46.20;;;;;;4440154;32;20146;-65
2021/06/20 11:13:56;;;;;;;4.65;3.50;;;37.30;46.90;;;;;;4443142;32;20527;-65
2021/06/20 11:16:36;;;;;;;4.80;3.90;;;37.80;46.70;;;;;;4443637;32;20191;-66
2021/06/20 11:19:21;;;;;;;4.87;3.87;;;37.90;45.30;;;;;;4443752;32;20142;-65
2021/06/20 11:21:47;;;;;;;4.55;3.80;;;37.80;44.50;;;;;;4442290;32;20146;-65
2021/06/20 11:24:18;;;;;;;4.07;3.42;;;38.10;45.50;;;;;;4443454;32;20142;-65
2021/06/20 11:26:54;;;;;;;5.75;4.00;;;38.00;45.10;;;;;;4441790;32;20134;-65
2021/06/20 11:29:22;;;;;;;4.05;3.65;;;38.30;44.00;;;;;;4443156;32;20165;-65
2021/06/20 11:31:52;;;;;;;4.35;3.67;;;38.60;43.50;;;;;;4443140;32;20190;-65
2021/06/20 11:34:19;;;;;;;4.35;3.85;;;39.00;42.10;;;;;;4443073;32;20158;-65
2021/06/20 11:36:46;;;;;;;4.60;4.00;;;39.10;43.10;;;;;;4443054;32;20188;-64
2021/06/20 11:39:15;;;;;;;4.75;3.78;;;38.80;42.30;;;;;;4441831;32;20142;-66
2021/06/20 11:41:48;;;;;;;4.87;3.40;;;38.90;42.30;;;;;;4443058;32;20169;-65
2021/06/20 11:44:17;;;;;;;5.50;3.60;;;39.20;42.10;;;;;;4442848;32;20199;-65
2021/06/20 11:46:46;;;;;;;4.37;3.40;;;39.20;42.20;;;;;;4441631;32;20159;-66
2021/06/20 11:49:15;;;;;;;3.95;3.47;;;39.20;42.00;;;;;;4443027;32;20498;-65
2021/06/20 11:51:49;;;;;;;3.97;3.40;;;39.30;41.50;;;;;;4441519;32;20150;-66
2021/06/20 11:54:28;;;;;;;5.05;3.65;;;39.10;41.10;;;;;;4443373;32;20169;-66
2021/06/20 11:57:05;;;;;;;5.10;3.58;;;39.00;42.20;;;;;;4443179;32;20238;-65
2021/06/20 11:59:41;;;;;;;7.57;3.55;;;39.10;42.10;;;;;;4442897;32;20210;-65
2021/06/20 12:02:12;;;;;;;3.80;3.33;;;39.00;41.90;;;;;;4442930;32;20180;-65
2021/06/20 12:04:45;;;;;;;6.12;3.70;;;39.30;40.60;;;;;;4442718;32;20253;-66
2021/06/20 12:07:12;;;;;;;5.20;3.33;;;39.00;42.00;;;;;;4442103;32;20150;-65
2021/06/20 12:09:39;;;;;;;5.25;3.40;;;39.50;41.60;;;;;;4442180;32;20173;-64
2021/06/20 12:12:11;;;;;;;4.87;3.40;;;39.70;41.50;;;;;;4440889;32;20472;-65
2021/06/20 12:14:41;;;;;;;4.75;3.37;;;39.50;41.50;;;;;;4443024;32;20499;-64
2021/06/20 12:17:08;;;;;;;3.87;3.10;;;39.00;41.50;;;;;;4441089;32;20188;-65
2021/06/20 12:19:36;;;;;;;4.97;3.83;;;38.90;42.00;;;;;;4440889;32;20181;-65
2021/06/20 12:22:14;;;;;;;4.37;3.40;;;38.70;41.90;;;;;;4440998;32;20199;-65
2021/06/20 12:25:00;;;;;;;5.53;3.55;;;38.30;42.30;;;;;;4442061;32;20161;-65
2021/06/20 12:27:34;;;;;;;5.65;3.45;;;38.60;42.00;;;;;;4442565;32;20135;-65
2021/06/20 12:30:23;;;;;;;3.75;3.37;;;38.60;41.80;;;;;;4441592;32;20150;-65
2021/06/20 12:32:51;;;;;;;5.75;3.60;;;38.60;42.30;;;;;;4442181;32;20178;-65
2021/06/20 12:35:24;;;;;;;5.00;3.40;;;39.00;42.60;;;;;;4439150;32;20182;-65
2021/06/20 12:37:53;;;;;;;4.15;3.75;;;38.90;42.40;;;;;;4437831;32;20151;-65
2021/06/20 12:40:24;;;;;;;5.72;3.90;;;38.40;42.30;;;;;;4433626;32;20159;-65
2021/06/20 12:42:54;;;;;;;5.57;3.55;;;38.60;43.90;;;;;;4426827;32;20196;-65
2021/06/20 12:45:32;;;;;;;5.18;3.40;;;38.50;42.90;;;;;;4426715;32;20203;-65
2021/06/20 12:48:13;;;;;;;5.53;3.30;;;39.00;42.40;;;;;;4426661;32;20197;-65